createdAt,value
2017-07-03T00:01:34.332Z,76.85
2017-07-03T00:04:02.730Z,77.09
2017-07-03T00:06:31.516Z,76.91
2017-07-03T00:09:01.032Z,77.10
2017-07-03T00:11:29.475Z,77.42
2017-07-03T00:13:58.196Z,77.77
2017-07-03T00:16:26.976Z,77.94
2017-07-03T00:18:55.782Z,78.20
2017-07-03T00:21:24.462Z,78.04
2017-07-03T00:23:52.882Z,78.56
2017-07-03T00:26:21.271Z,78.46
2017-07-03T00:28:49.657Z,78.60
2017-07-03T00:31:18.070Z,78.91
2017-07-03T00:33:46.852Z,79.19
2017-07-03T00:36:16.158Z,79.53
2017-07-03T00:38:44.545Z,79.33
2017-07-03T00:41:13.333Z,79.28
2017-07-03T00:43:42.123Z,79.49
2017-07-03T00:46:10.932Z,79.96
2017-07-03T00:48:39.326Z,79.70
2017-07-03T00:51:08.180Z,79.86
2017-07-03T00:53:36.556Z,80.15
2017-07-03T00:56:04.942Z,80.55
2017-07-03T00:58:33.336Z,80.20
2017-07-03T01:01:02.132Z,80.42
2017-07-03T01:03:30.535Z,80.41
2017-07-03T01:05:59.618Z,80.74
2017-07-03T01:08:28.123Z,80.55
2017-07-03T01:10:56.512Z,81.08
2017-07-03T01:13:25.234Z,81.04
2017-07-03T01:15:53.630Z,81.21
2017-07-03T01:18:22.937Z,81.17
2017-07-03T01:20:51.961Z,81.17
2017-07-03T01:23:20.349Z,81.34
2017-07-03T01:25:49.460Z,81.41
2017-07-03T01:28:17.841Z,81.17
2017-07-03T01:30:46.249Z,81.36
2017-07-03T01:33:14.662Z,81.49
2017-07-03T01:35:43.061Z,81.82
2017-07-03T01:38:11.448Z,81.89
2017-07-03T01:40:39.881Z,82.04
2017-07-03T01:43:08.665Z,82.01
2017-07-03T01:45:37.665Z,82.04
2017-07-03T01:48:07.044Z,82.07
2017-07-03T01:50:35.433Z,82.27
2017-07-03T01:53:03.843Z,82.26
2017-07-03T01:55:32.224Z,82.36
2017-07-03T01:58:00.638Z,82.51
2017-07-03T02:00:29.024Z,82.73
2017-07-03T02:02:57.424Z,83.14
2017-07-03T02:05:25.837Z,83.30
2017-07-03T02:07:54.747Z,84.02
2017-07-03T02:10:23.135Z,84.13
2017-07-03T02:12:51.521Z,84.29
2017-07-03T02:15:19.939Z,84.42
2017-07-03T02:17:48.338Z,84.56
2017-07-03T02:20:17.446Z,84.50
2017-07-03T02:22:46.237Z,84.40
2017-07-03T02:25:15.417Z,84.65
2017-07-03T02:27:43.797Z,84.37
2017-07-03T02:30:12.501Z,84.55
2017-07-03T02:32:41.376Z,84.54
2017-07-03T02:35:09.777Z,84.71
2017-07-03T02:37:38.189Z,84.73
2017-07-03T02:40:06.583Z,84.87
2017-07-03T02:42:34.981Z,84.76
2017-07-03T02:45:03.361Z,84.58
2017-07-03T02:47:32.082Z,84.81
2017-07-03T02:50:00.860Z,84.80
2017-07-03T02:52:30.426Z,84.87
2017-07-03T02:54:58.896Z,85.09
2017-07-03T02:57:27.290Z,85.12
2017-07-03T02:59:55.702Z,85.09
2017-07-03T03:02:24.493Z,85.20
2017-07-03T03:04:52.981Z,84.84
2017-07-03T03:07:22.261Z,84.79
2017-07-03T03:09:50.656Z,84.71
2017-07-03T03:12:19.703Z,84.53
2017-07-03T03:14:48.109Z,84.44
2017-07-03T03:17:16.487Z,84.20
2017-07-03T03:19:45.149Z,84.00
2017-07-03T03:22:13.589Z,83.99
2017-07-03T03:24:42.373Z,83.65
2017-07-03T03:27:10.772Z,83.45
2017-07-03T03:29:40.517Z,83.22
2017-07-03T03:32:09.166Z,83.10
2017-07-03T03:34:37.954Z,82.95
2017-07-03T03:37:06.763Z,82.81
2017-07-03T03:39:35.151Z,82.39
2017-07-03T03:42:03.915Z,81.85
2017-07-03T03:44:32.711Z,81.66
2017-07-03T03:47:01.103Z,81.82
2017-07-03T03:49:29.514Z,81.25
2017-07-03T03:51:58.609Z,80.64
2017-07-03T03:54:27.004Z,80.18
2017-07-03T03:56:55.398Z,78.31
2017-07-03T03:59:23.798Z,74.16
2017-07-03T04:01:52.693Z,68.81
2017-07-03T04:04:21.679Z,65.42
2017-07-03T04:06:50.472Z,62.27
2017-07-03T04:09:19.264Z,60.42
2017-07-03T04:11:48.066Z,59.03
2017-07-03T04:14:16.458Z,57.26
2017-07-03T04:16:44.869Z,55.77
2017-07-03T04:19:13.252Z,54.44
2017-07-03T04:21:41.650Z,54.03
2017-07-03T04:24:10.645Z,51.79
2017-07-03T04:26:39.045Z,50.82
2017-07-03T04:29:08.745Z,51.03
2017-07-03T04:31:37.325Z,49.01
2017-07-03T04:34:05.737Z,48.53
2017-07-03T04:36:34.163Z,47.62
2017-07-03T04:39:02.570Z,47.07
2017-07-03T04:41:30.962Z,47.22
2017-07-03T04:43:59.767Z,47.03
2017-07-03T04:46:28.178Z,44.19
2017-07-03T04:48:56.714Z,43.82
2017-07-03T04:51:25.496Z,43.14
2017-07-03T04:53:53.909Z,42.29
2017-07-03T04:56:22.322Z,41.31
2017-07-03T04:58:50.718Z,40.98
2017-07-03T05:01:19.966Z,41.53
2017-07-03T05:03:49.475Z,39.89
2017-07-03T05:06:18.040Z,39.01
2017-07-03T05:08:46.437Z,38.14
2017-07-03T05:11:14.832Z,38.03
2017-07-03T05:13:43.590Z,39.21
2017-07-03T05:16:11.972Z,39.30
2017-07-03T05:18:40.772Z,37.85
2017-07-03T05:21:09.161Z,36.79
2017-07-03T05:23:37.567Z,35.08
2017-07-03T05:26:05.957Z,36.03
2017-07-03T05:28:34.577Z,35.06
2017-07-03T05:31:03.364Z,35.82
2017-07-03T05:33:32.235Z,35.66
2017-07-03T05:36:00.650Z,35.60
2017-07-03T05:38:29.437Z,34.03
2017-07-03T05:40:58.413Z,33.19
2017-07-03T05:43:32.278Z,33.35
2017-07-03T05:46:00.690Z,33.64
2017-07-03T05:48:29.087Z,32.86
2017-07-03T05:50:57.893Z,32.15
2017-07-03T05:53:26.283Z,31.30
2017-07-03T05:55:54.987Z,30.70
2017-07-03T05:58:23.397Z,30.24
2017-07-03T06:00:51.805Z,30.19
2017-07-03T06:03:20.506Z,30.42
2017-07-03T06:05:49.838Z,30.84
2017-07-03T06:08:18.241Z,29.05
2017-07-03T06:10:46.874Z,30.51
2017-07-03T06:13:15.282Z,31.14
2017-07-03T06:15:45.267Z,30.93
2017-07-03T06:18:13.855Z,30.92
2017-07-03T06:20:42.246Z,28.94
2017-07-03T06:23:10.654Z,28.95
2017-07-03T06:25:39.053Z,30.14
2017-07-03T06:28:09.144Z,29.67
2017-07-03T06:30:37.561Z,29.01
2017-07-03T06:33:06.355Z,28.85
2017-07-03T06:35:34.770Z,28.97
2017-07-03T06:38:03.862Z,26.91
2017-07-03T06:40:32.431Z,26.43
2017-07-03T06:43:01.266Z,27.57
2017-07-03T06:45:29.923Z,26.04
2017-07-03T06:47:58.730Z,24.65
2017-07-03T06:50:27.358Z,26.44
2017-07-03T06:52:55.775Z,25.91
2017-07-03T06:55:24.566Z,27.14
2017-07-03T06:57:53.368Z,29.50
2017-07-03T07:00:22.326Z,28.29
2017-07-03T07:02:51.135Z,27.79
2017-07-03T07:05:19.531Z,26.61
2017-07-03T07:07:47.935Z,26.20
2017-07-03T07:10:16.345Z,26.17
2017-07-03T07:12:44.726Z,25.92
2017-07-03T07:15:13.139Z,25.40
2017-07-03T07:17:42.382Z,23.93
2017-07-03T07:20:11.122Z,23.31
2017-07-03T07:22:39.518Z,25.88
2017-07-03T07:25:07.926Z,25.03
2017-07-03T07:27:36.367Z,23.98
2017-07-03T07:30:04.762Z,24.56
2017-07-03T07:32:33.185Z,24.52
2017-07-03T07:35:01.582Z,22.74
2017-07-03T07:37:30.804Z,22.44
2017-07-03T07:39:59.202Z,23.47
2017-07-03T07:42:27.766Z,26.58
2017-07-03T07:44:56.174Z,26.47
2017-07-03T07:47:24.583Z,23.82
2017-07-03T07:49:52.995Z,22.62
2017-07-03T07:52:21.391Z,23.03
2017-07-03T07:54:50.080Z,24.58
2017-07-03T07:57:19.443Z,23.40
2017-07-03T07:59:47.840Z,22.49
2017-07-03T08:02:16.228Z,23.33
2017-07-03T08:04:44.626Z,28.02
2017-07-03T08:07:13.411Z,26.35
2017-07-03T08:09:42.300Z,29.20
2017-07-03T08:12:10.688Z,30.01
2017-07-03T08:14:39.072Z,26.77
2017-07-03T08:17:07.490Z,23.61
2017-07-03T08:19:35.883Z,21.01
2017-07-03T08:22:04.292Z,20.55
2017-07-03T08:24:32.685Z,20.09
2017-07-03T08:27:01.506Z,19.31
2017-07-03T08:29:29.901Z,18.97
2017-07-03T08:31:58.846Z,18.62
2017-07-03T08:34:27.629Z,18.82
2017-07-03T08:36:57.759Z,18.89
2017-07-03T08:39:26.557Z,18.79
2017-07-03T08:41:55.231Z,20.05
2017-07-03T08:44:24.039Z,21.96
2017-07-03T08:46:52.429Z,23.55
2017-07-03T08:49:20.833Z,23.78
2017-07-03T08:51:49.217Z,22.53
2017-07-03T08:54:18.541Z,19.63
2017-07-03T08:56:47.624Z,19.93
2017-07-03T08:59:16.347Z,18.68
2017-07-03T09:01:45.147Z,20.33
2017-07-03T09:04:13.544Z,20.11
2017-07-03T09:06:41.953Z,23.46
2017-07-03T09:09:10.411Z,25.78
2017-07-03T09:11:39.539Z,22.58
2017-07-03T09:14:07.935Z,20.21
2017-07-03T09:16:37.161Z,20.61
2017-07-03T09:19:05.566Z,21.81
2017-07-03T09:21:34.002Z,18.84
2017-07-03T09:24:02.407Z,18.22
2017-07-03T09:26:31.069Z,16.94
2017-07-03T09:28:59.858Z,20.94
2017-07-03T09:31:28.634Z,23.89
2017-07-03T09:33:57.500Z,26.51
2017-07-03T09:36:25.888Z,28.44
2017-07-03T09:38:54.302Z,29.28
2017-07-03T09:41:23.090Z,25.37
2017-07-03T09:43:52.200Z,21.52
2017-07-03T09:46:21.011Z,18.79
2017-07-03T09:48:49.406Z,17.89
2017-07-03T09:51:17.817Z,16.74
2017-07-03T09:53:46.208Z,16.72
2017-07-03T09:56:14.622Z,17.58
2017-07-03T09:58:43.009Z,17.34
2017-07-03T10:01:11.547Z,18.86
2017-07-03T10:03:40.042Z,18.74
2017-07-03T10:06:08.820Z,20.15
2017-07-03T10:08:37.227Z,22.66
2017-07-03T10:11:05.625Z,25.69
2017-07-03T10:13:34.026Z,23.32
2017-07-03T10:16:02.426Z,21.02
2017-07-03T10:18:31.752Z,19.75
2017-07-03T10:21:00.141Z,18.02
2017-07-03T10:23:29.248Z,17.88
2017-07-03T10:25:57.663Z,19.36
2017-07-03T10:28:26.048Z,19.73
2017-07-03T10:30:54.470Z,18.76
2017-07-03T10:33:23.168Z,21.27
2017-07-03T10:35:51.982Z,22.21
2017-07-03T10:38:20.370Z,24.18
2017-07-03T10:40:48.805Z,24.39
2017-07-03T10:43:17.708Z,23.88
2017-07-03T10:45:46.354Z,21.57
2017-07-03T10:48:14.765Z,21.28
2017-07-03T10:50:43.771Z,21.45
2017-07-03T10:53:12.565Z,21.48
2017-07-03T10:55:41.341Z,20.77
2017-07-03T10:58:09.751Z,20.90
2017-07-03T11:00:38.140Z,20.03
2017-07-03T11:03:06.550Z,20.62
2017-07-03T11:05:34.954Z,20.43
2017-07-03T11:08:03.757Z,19.61
2017-07-03T11:10:32.583Z,21.55
2017-07-03T11:13:01.215Z,23.33
2017-07-03T11:15:29.610Z,25.04
2017-07-03T11:17:58.183Z,26.70
2017-07-03T11:20:26.574Z,27.18
2017-07-03T11:22:55.380Z,26.37
2017-07-03T11:25:23.782Z,27.11
2017-07-03T11:27:52.184Z,30.05
2017-07-03T11:30:20.590Z,32.79
2017-07-03T11:32:49.078Z,33.68
2017-07-03T11:35:18.065Z,31.26
2017-07-03T11:37:46.768Z,31.16
2017-07-03T11:40:15.549Z,31.92
2017-07-03T11:42:44.356Z,32.10
2017-07-03T11:45:12.763Z,32.18
2017-07-03T11:47:41.157Z,32.65
2017-07-03T11:50:09.547Z,33.10
2017-07-03T11:52:37.949Z,33.95
2017-07-03T11:55:06.345Z,33.73
2017-07-03T11:57:35.365Z,32.40
2017-07-03T12:00:03.761Z,32.42
2017-07-03T12:02:32.291Z,32.45
2017-07-03T12:05:00.676Z,32.95
2017-07-03T12:07:29.477Z,33.23
2017-07-03T12:09:57.882Z,33.95
2017-07-03T12:12:26.270Z,33.23
2017-07-03T12:14:54.675Z,33.14
2017-07-03T12:17:23.074Z,32.99
2017-07-03T12:19:51.664Z,33.34
2017-07-03T12:22:20.120Z,33.17
2017-07-03T12:24:48.512Z,34.47
2017-07-03T12:27:16.926Z,34.32
2017-07-03T12:29:46.670Z,34.83
2017-07-03T12:32:15.119Z,34.73
2017-07-03T12:34:43.600Z,34.29
2017-07-03T12:37:12.422Z,34.57
2017-07-03T12:39:40.822Z,34.73
2017-07-03T12:42:09.236Z,35.69
2017-07-03T12:44:37.634Z,35.70
2017-07-03T12:47:06.237Z,35.72
2017-07-03T12:49:34.636Z,35.63
2017-07-03T12:52:03.040Z,36.05
2017-07-03T12:54:31.452Z,36.09
2017-07-03T12:57:00.250Z,35.73
2017-07-03T12:59:29.045Z,35.68
2017-07-03T13:01:57.454Z,34.99
2017-07-03T13:04:25.878Z,35.22
2017-07-03T13:06:54.270Z,35.78
2017-07-03T13:09:23.087Z,35.52
2017-07-03T13:11:51.503Z,35.27
2017-07-03T13:14:20.122Z,34.79
2017-07-03T13:16:48.923Z,35.41
2017-07-03T13:19:17.717Z,35.82
2017-07-03T13:21:46.135Z,36.25
2017-07-03T13:24:15.221Z,36.32
2017-07-03T13:26:43.639Z,36.45
2017-07-03T13:29:12.029Z,36.27
2017-07-03T13:31:40.447Z,36.36
2017-07-03T13:34:08.833Z,35.66
2017-07-03T13:36:37.262Z,36.07
2017-07-03T13:39:05.668Z,36.42
2017-07-03T13:41:34.645Z,37.16
2017-07-03T13:44:03.024Z,38.14
2017-07-03T13:46:32.136Z,37.71
2017-07-03T13:49:01.515Z,37.79
2017-07-03T13:51:29.923Z,37.94
2017-07-03T13:53:58.801Z,36.92
2017-07-03T13:56:27.594Z,36.71
2017-07-03T13:58:56.722Z,35.96
2017-07-03T14:01:25.123Z,35.85
2017-07-03T14:03:53.873Z,36.02
2017-07-03T14:06:22.814Z,36.64
2017-07-03T14:08:51.559Z,36.49
2017-07-03T14:11:20.731Z,36.35
2017-07-03T14:13:49.440Z,36.40
2017-07-03T14:16:17.849Z,36.64
2017-07-03T14:18:46.248Z,36.30
2017-07-03T14:21:14.667Z,36.77
2017-07-03T14:23:43.061Z,36.86
2017-07-03T14:26:11.620Z,36.67
2017-07-03T14:28:40.019Z,37.71
2017-07-03T14:31:08.803Z,37.62
2017-07-03T14:33:37.609Z,37.63
2017-07-03T14:36:06.007Z,36.83
2017-07-03T14:38:34.474Z,36.75
2017-07-03T14:41:02.938Z,37.59
2017-07-03T14:43:31.759Z,38.13
2017-07-03T14:46:00.158Z,37.89
2017-07-03T14:48:28.583Z,38.07
2017-07-03T14:50:58.061Z,36.91
2017-07-03T14:53:26.492Z,37.45
2017-07-03T14:55:54.883Z,37.24
2017-07-03T14:58:24.251Z,37.37
2017-07-03T15:00:53.042Z,37.25
2017-07-03T15:03:22.460Z,37.57
2017-07-03T15:05:51.645Z,36.42
2017-07-03T15:08:20.438Z,36.64
2017-07-03T15:10:49.233Z,37.23
2017-07-03T15:13:18.015Z,36.84
2017-07-03T15:15:47.091Z,37.47
2017-07-03T15:18:15.477Z,36.98
2017-07-03T15:20:43.903Z,37.27
2017-07-03T15:23:12.285Z,36.71
2017-07-03T15:25:40.839Z,36.79
2017-07-03T15:28:09.631Z,36.47
2017-07-03T15:30:38.042Z,36.03
2017-07-03T15:33:06.479Z,36.41
2017-07-03T15:35:35.590Z,36.13
2017-07-03T15:38:04.399Z,36.24
2017-07-03T15:40:32.788Z,36.19
2017-07-03T15:43:01.438Z,36.38
2017-07-03T15:45:30.216Z,35.98
2017-07-03T15:47:58.618Z,36.04
2017-07-03T15:50:27.038Z,35.89
2017-07-03T15:52:55.803Z,35.99
2017-07-03T15:55:24.210Z,36.12
2017-07-03T15:57:52.606Z,36.24
2017-07-03T16:00:21.019Z,36.13
2017-07-03T16:02:49.807Z,36.29
2017-07-03T16:05:18.609Z,36.11
2017-07-03T16:07:47.011Z,36.28
2017-07-03T16:10:15.408Z,36.88
2017-07-03T16:12:43.798Z,36.53
2017-07-03T16:15:12.733Z,36.36
2017-07-03T16:17:41.525Z,36.53
2017-07-03T16:20:10.627Z,36.45
2017-07-03T16:22:39.033Z,36.50
2017-07-03T16:25:07.650Z,37.04
2017-07-03T16:27:36.089Z,36.80
2017-07-03T16:30:04.486Z,37.05
2017-07-03T16:32:32.892Z,36.91
2017-07-03T16:35:01.275Z,37.73
2017-07-03T16:37:29.675Z,37.82
2017-07-03T16:39:58.453Z,38.14
2017-07-03T16:42:27.166Z,38.62
2017-07-03T16:44:55.944Z,38.19
2017-07-03T16:47:24.725Z,38.07
2017-07-03T16:49:53.937Z,38.32
2017-07-03T16:52:22.720Z,38.58
2017-07-03T16:54:51.516Z,38.32
2017-07-03T16:57:20.712Z,38.63
2017-07-03T16:59:49.503Z,38.63
2017-07-03T17:02:18.603Z,38.70
2017-07-03T17:04:47.437Z,38.17
2017-07-03T17:07:15.851Z,38.26
2017-07-03T17:09:44.290Z,38.44
2017-07-03T17:12:12.705Z,38.66
2017-07-03T17:14:41.905Z,38.77
2017-07-03T17:17:11.926Z,39.10
2017-07-03T17:19:40.312Z,39.35
2017-07-03T17:22:08.710Z,40.05
2017-07-03T17:24:37.505Z,40.09
2017-07-03T17:27:06.299Z,40.20
2017-07-03T17:29:34.703Z,40.73
2017-07-03T17:32:03.140Z,40.65
2017-07-03T17:34:32.143Z,40.82
2017-07-03T17:37:00.969Z,40.78
2017-07-03T17:39:29.366Z,41.26
2017-07-03T17:41:57.765Z,40.92
2017-07-03T17:44:27.137Z,41.35
2017-07-03T17:46:55.544Z,41.10
2017-07-03T17:49:23.950Z,41.02
2017-07-03T17:51:52.950Z,41.46
2017-07-03T17:54:22.045Z,41.48
2017-07-03T17:56:50.837Z,41.78
2017-07-03T17:59:19.629Z,41.78
2017-07-03T18:01:49.241Z,42.03
2017-07-03T18:04:18.053Z,41.87
2017-07-03T18:06:46.450Z,42.29
2017-07-03T18:09:15.078Z,42.45
2017-07-03T18:11:43.484Z,42.80
2017-07-03T18:14:11.874Z,43.23
2017-07-03T18:16:40.380Z,43.53
2017-07-03T18:19:08.779Z,43.86
2017-07-03T18:21:37.507Z,44.11
2017-07-03T18:24:06.293Z,44.54
2017-07-03T18:26:35.390Z,44.91
2017-07-03T18:29:04.182Z,45.25
2017-07-03T18:31:32.714Z,45.52
2017-07-03T18:34:01.341Z,45.85
2017-07-03T18:36:30.363Z,46.23
2017-07-03T18:38:58.769Z,46.31
2017-07-03T18:41:27.159Z,46.57
2017-07-03T18:43:55.578Z,46.79
2017-07-03T18:46:24.364Z,46.93
2017-07-03T18:48:52.935Z,47.25
2017-07-03T18:51:21.326Z,47.32
2017-07-03T18:53:50.123Z,47.80
2017-07-03T18:56:19.864Z,48.05
2017-07-03T18:58:48.266Z,48.27
2017-07-03T19:01:16.674Z,48.61
2017-07-03T19:03:45.386Z,49.11
2017-07-03T19:06:15.506Z,49.21
2017-07-03T19:08:44.299Z,49.31
2017-07-03T19:11:13.901Z,49.59
2017-07-03T19:13:42.326Z,49.94
2017-07-03T19:16:10.722Z,50.11
2017-07-03T19:18:39.129Z,50.15
2017-07-03T19:21:07.934Z,50.13
2017-07-03T19:23:37.117Z,50.07
2017-07-03T19:26:05.937Z,50.65
2017-07-03T19:28:34.326Z,50.55
2017-07-03T19:31:02.749Z,50.68
2017-07-03T19:33:32.123Z,50.81
2017-07-03T19:36:00.530Z,50.57
2017-07-03T19:38:29.254Z,50.66
2017-07-03T19:40:58.056Z,50.80
2017-07-03T19:43:26.441Z,51.19
2017-07-03T19:45:54.989Z,51.32
2017-07-03T19:48:23.389Z,51.80
2017-07-03T19:50:52.274Z,51.90
2017-07-03T19:53:21.077Z,52.04
2017-07-03T19:55:49.469Z,52.38
2017-07-03T19:58:17.875Z,52.23
2017-07-03T20:00:46.886Z,52.24
2017-07-03T20:03:15.629Z,52.31
2017-07-03T20:05:44.028Z,52.53
2017-07-03T20:08:12.424Z,52.40
2017-07-03T20:10:40.845Z,52.39
2017-07-03T20:13:09.624Z,52.28
2017-07-03T20:15:38.062Z,51.98
2017-07-03T20:18:06.541Z,51.86
2017-07-03T20:20:34.955Z,51.75
2017-07-03T20:23:03.353Z,51.51
2017-07-03T20:25:32.145Z,51.59
2017-07-03T20:28:01.869Z,51.62
2017-07-03T20:30:30.641Z,51.53
2017-07-03T20:32:59.504Z,51.36
2017-07-03T20:35:27.903Z,51.60
2017-07-03T20:37:56.308Z,51.64
2017-07-03T20:40:24.977Z,51.75
2017-07-03T20:42:53.784Z,51.86
2017-07-03T20:45:22.877Z,52.07
2017-07-03T20:47:52.704Z,52.13
2017-07-03T20:50:21.099Z,52.16
2017-07-03T20:52:49.615Z,52.31
2017-07-03T20:55:18.019Z,52.54
2017-07-03T20:57:46.864Z,52.74
2017-07-03T21:00:15.270Z,52.94
2017-07-03T21:02:43.664Z,53.03
2017-07-03T21:05:12.248Z,52.97
2017-07-03T21:07:40.682Z,53.02
2017-07-03T21:10:09.088Z,53.16
2017-07-03T21:12:37.491Z,53.29
2017-07-03T21:15:06.296Z,53.29
2017-07-03T21:17:35.084Z,53.44
2017-07-03T21:20:03.474Z,53.66
2017-07-03T21:22:32.269Z,53.71
2017-07-03T21:25:01.822Z,53.88
2017-07-03T21:27:30.239Z,54.07
2017-07-03T21:30:00.058Z,54.03
2017-07-03T21:32:28.868Z,53.98
2017-07-03T21:34:57.492Z,54.09
2017-07-03T21:37:26.206Z,53.98
2017-07-03T21:39:54.997Z,53.94
2017-07-03T21:42:23.381Z,53.80
2017-07-03T21:44:52.180Z,53.87
2017-07-03T21:47:21.280Z,53.90
2017-07-03T21:49:50.082Z,54.01
2017-07-03T21:52:19.546Z,53.47
2017-07-03T21:54:47.949Z,53.16
2017-07-03T21:57:16.744Z,53.53
2017-07-03T21:59:45.186Z,52.95
2017-07-03T22:02:13.909Z,53.20
2017-07-03T22:04:42.813Z,53.45
2017-07-03T22:07:11.193Z,53.75
2017-07-03T22:09:39.581Z,54.28
2017-07-03T22:12:08.248Z,54.24
2017-07-03T22:14:37.040Z,54.46
2017-07-03T22:17:05.841Z,54.64
2017-07-03T22:19:35.025Z,54.77
2017-07-03T22:22:03.817Z,54.76
2017-07-03T22:24:33.251Z,54.53
2017-07-03T22:27:02.242Z,54.17
2017-07-03T22:29:30.638Z,54.23
2017-07-03T22:31:59.184Z,54.16
2017-07-03T22:34:27.570Z,54.16
2017-07-03T22:36:55.968Z,54.42
2017-07-03T22:39:24.375Z,54.06
2017-07-03T22:41:52.769Z,54.14
2017-07-03T22:44:21.485Z,53.97
2017-07-03T22:46:51.503Z,54.10
2017-07-03T22:49:20.310Z,53.87
2017-07-03T22:51:48.981Z,53.86
2017-07-03T22:54:17.866Z,53.91
2017-07-03T22:56:46.653Z,53.92
2017-07-03T22:59:15.633Z,54.05
2017-07-03T23:01:44.182Z,54.02
2017-07-03T23:04:13.348Z,54.06
2017-07-03T23:06:41.758Z,54.35
2017-07-03T23:09:10.302Z,54.47
2017-07-03T23:11:39.123Z,54.72
2017-07-03T23:14:07.516Z,54.84
2017-07-03T23:16:35.949Z,55.11
2017-07-03T23:19:04.725Z,55.41
2017-07-03T23:21:33.920Z,55.51
2017-07-03T23:24:02.300Z,55.83
2017-07-03T23:26:30.777Z,56.16
2017-07-03T23:28:59.186Z,56.63
2017-07-03T23:31:27.866Z,56.92
2017-07-03T23:33:57.378Z,57.25
2017-07-03T23:36:25.902Z,57.43
2017-07-03T23:38:54.734Z,57.79
2017-07-03T23:41:23.126Z,57.86
2017-07-03T23:43:51.919Z,59.50
2017-07-03T23:46:20.597Z,61.56
2017-07-03T23:48:49.394Z,63.45
2017-07-03T23:51:18.188Z,64.43
2017-07-03T23:53:46.572Z,65.88
2017-07-03T23:56:14.982Z,66.60
2017-07-03T23:58:43.424Z,67.04
